Wetterdaten: Woche 09.10.17 - 15.10.17 (KW41)
Datum Zeit Temp. A. Pool Temp. Feuchte A. Luftdruck Regen Wind Richtung Sonnenschein ET UV Solar Taupunkt Windchill Windben Empfang
09.10.2017 00:00 10,9 C 11,1 C 89 % 1017,2 hPa 0,0 l/m 14,6 km/h (3 Bft) W-SW 0,00 h 0,000 mm 0,0 UV-I 0 W/m 9,1 C 6,4 C 21,9 km/h (4 Bft) 96,71 %
09.10.2017 01:00 10,4 C 11,1 C 91 % 1017,6 hPa 0,0 l/m 12,3 km/h (3 Bft) W-SW 0,00 h 0,025 mm 0,0 UV-I 0 W/m 9,0 C 7,0 C 19,6 km/h (3 Bft) 98,55 %
09.10.2017 02:00 10,1 C 11,1 C 91 % 1017,7 hPa 0,2 l/m 8,6 km/h (2 Bft) W-SW 0,00 h 0,026 mm 0,0 UV-I 0 W/m 8,8 C 8,6 C 13,9 km/h (3 Bft) 99,25 %
09.10.2017 03:00 9,8 C 11,1 C 92 % 1017,6 hPa 0,2 l/m 7,3 km/h (2 Bft) W-SW 0,00 h 0,000 mm 0,0 UV-I 0 W/m 8,6 C 9,0 C 11,6 km/h (2 Bft) 97,20 %
09.10.2017 04:00 9,3 C 11,1 C 94 % 1017,6 hPa 0,2 l/m 6,6 km/h (2 Bft) W-SW 0,00 h 0,000 mm 0,0 UV-I 0 W/m 8,3 C 8,9 C 10,7 km/h (2 Bft) 97,41 %
09.10.2017 05:00 9,0 C 11,1 C 94 % 1017,7 hPa 0,0 l/m 5,9 km/h (2 Bft) SW 0,00 h 0,000 mm 0,0 UV-I 0 W/m 8,2 C 8,9 C 9,1 km/h (2 Bft) 98,01 %
09.10.2017 06:00 8,9 C 11,1 C 95 % 1018,0 hPa 0,2 l/m 6,3 km/h (2 Bft) W-SW 0,00 h 0,000 mm 0,0 UV-I 0 W/m 8,1 C 8,7 C 10,2 km/h (2 Bft) 99,21 %
09.10.2017 07:00 8,8 C 11,1 C 95 % 1018,2 hPa 0,0 l/m 6,9 km/h (2 Bft) SW 0,00 h 0,000 mm 0,0 UV-I 10 W/m 8,0 C 8,2 C 11,1 km/h (2 Bft) 96,63 %
09.10.2017 08:00 8,8 C 11,1 C 95 % 1018,4 hPa 0,2 l/m 6,7 km/h (2 Bft) SW 0,00 h 0,000 mm 0,0 UV-I 42 W/m 8,1 C 8,4 C 10,6 km/h (2 Bft) 98,09 %
09.10.2017 09:00 9,4 C 11,1 C 94 % 1018,7 hPa 0,0 l/m 7,1 km/h (2 Bft) W-SW 0,00 h 0,025 mm 0,5 UV-I 105 W/m 8,5 C 8,8 C 11,7 km/h (2 Bft) 98,37 %
09.10.2017 10:00 9,9 C 11,1 C 92 % 1019,0 hPa 0,0 l/m 7,0 km/h (2 Bft) SW 0,00 h 0,051 mm 0,8 UV-I 153 W/m 8,6 C 9,4 C 11,4 km/h (2 Bft) 99,65 %
09.10.2017 11:00 10,7 C 11,1 C 89 % 1019,1 hPa 0,0 l/m 8,3 km/h (2 Bft) SW 0,00 h 0,076 mm 1,1 UV-I 216 W/m 8,9 C 9,4 C 13,2 km/h (3 Bft) 96,33 %
09.10.2017 12:00 10,9 C 11,1 C 88 % 1019,1 hPa 0,0 l/m 9,6 km/h (2 Bft) SW 0,00 h 0,102 mm 0,8 UV-I 153 W/m 9,0 C 8,8 C 15,0 km/h (3 Bft) 98,47 %
09.10.2017 13:00 11,8 C 11,1 C 83 % 1018,8 hPa 0,0 l/m 10,6 km/h (2 Bft) W-SW 0,27 h 0,076 mm 1,4 UV-I 267 W/m 9,0 C 9,4 C 16,8 km/h (3 Bft) 98,42 %
09.10.2017 14:00 12,2 C 11,1 C 79 % 1018,6 hPa 0,0 l/m 10,2 km/h (2 Bft) W-SW 0,03 h 0,152 mm 1,2 UV-I 212 W/m 8,6 C 10,0 C 15,5 km/h (3 Bft) 99,01 %
09.10.2017 15:00 11,6 C 11,1 C 83 % 1018,4 hPa 0,0 l/m 7,2 km/h (2 Bft) SW 0,00 h 0,127 mm 0,0 UV-I 47 W/m 8,9 C 10,8 C 12,6 km/h (3 Bft) 96,95 %
09.10.2017 16:00 10,9 C 11,1 C 90 % 1018,2 hPa 0,4 l/m 7,6 km/h (2 Bft) S-SW 0,00 h 0,026 mm 0,0 UV-I 61 W/m 9,4 C 9,9 C 11,6 km/h (2 Bft) 97,88 %
09.10.2017 17:00 10,7 C 11,1 C 92 % 1018,1 hPa 0,0 l/m 8,2 km/h (2 Bft) SW 0,00 h 0,051 mm 0,0 UV-I 23 W/m 9,4 C 9,5 C 12,8 km/h (3 Bft) 98,47 %
09.10.2017 18:00 10,3 C 11,1 C 93 % 1018,3 hPa 0,2 l/m 9,1 km/h (2 Bft) SW 0,00 h 0,025 mm 0,0 UV-I 5 W/m 9,2 C 8,4 C 14,3 km/h (3 Bft) 98,90 %
09.10.2017 19:00 10,0 C 11,1 C 93 % 1018,3 hPa 0,0 l/m 7,1 km/h (2 Bft) SW 0,00 h 0,000 mm 0,0 UV-I 0 W/m 8,9 C 9,4 C 11,4 km/h (2 Bft) 95,43 %
09.10.2017 20:00 9,8 C 11,1 C 93 % 1018,3 hPa 0,0 l/m 10,2 km/h (2 Bft) SW 0,00 h 0,000 mm 0,0 UV-I 0 W/m 8,8 C 7,4 C 15,6 km/h (3 Bft) 99,00 %
09.10.2017 21:00 10,1 C 11,1 C 92 % 1018,6 hPa 0,0 l/m 15,5 km/h (3 Bft) SW 0,00 h 0,000 mm 0,0 UV-I 0 W/m 8,8 C 5,1 C 23,0 km/h (4 Bft) 97,70 %
09.10.2017 22:00 10,0 C 11,1 C 91 % 1019,1 hPa 0,0 l/m 12,3 km/h (3 Bft) W-SW 0,00 h 0,025 mm 0,0 UV-I 0 W/m 8,6 C 6,4 C 18,7 km/h (3 Bft) 98,66 %
09.10.2017 23:00 9,7 C 11,1 C 91 % 1019,2 hPa 0,0 l/m 13,2 km/h (3 Bft) SW 0,00 h 0,026 mm 0,0 UV-I 0 W/m 8,3 C 5,6 C 19,6 km/h (3 Bft) 95,95 %
10.10.2017 00:00 9,7 C 11,1 C 91 % 1019,0 hPa 0,0 l/m 12,6 km/h (3 Bft) SW 0,00 h 0,000 mm 0,0 UV-I 0 W/m 8,2 C 5,9 C 18,9 km/h (3 Bft) 99,33 %
10.10.2017 01:00 9,7 C 11,1 C 90 % 1018,9 hPa 0,0 l/m 10,7 km/h (2 Bft) SW 0,00 h 0,025 mm 0,0 UV-I 0 W/m 8,1 C 6,9 C 16,8 km/h (3 Bft) 97,73 %
10.10.2017 02:00 9,5 C 11,1 C 88 % 1018,8 hPa 0,0 l/m 9,5 km/h (2 Bft) SW 0,00 h 0,026 mm 0,0 UV-I 0 W/m 7,6 C 7,4 C 14,6 km/h (3 Bft) 98,23 %
10.10.2017 03:00 9,2 C 11,1 C 88 % 1018,6 hPa 0,0 l/m 10,5 km/h (2 Bft) SW 0,00 h 0,025 mm 0,0 UV-I 0 W/m 7,4 C 6,5 C 16,2 km/h (3 Bft) 96,59 %
10.10.2017 04:00 8,8 C 11,1 C 90 % 1018,5 hPa 0,0 l/m 7,3 km/h (2 Bft) SW 0,00 h 0,026 mm 0,0 UV-I 0 W/m 7,3 C 8,1 C 11,1 km/h (2 Bft) 99,52 %
10.10.2017 05:00 8,6 C 11,1 C 91 % 1018,2 hPa 0,0 l/m 5,8 km/h (2 Bft) W-SW 0,00 h 0,000 mm 0,0 UV-I 0 W/m 7,3 C 8,4 C 8,7 km/h (2 Bft) 97,61 %
10.10.2017 06:00 8,7 C 11,1 C 90 % 1018,1 hPa 0,0 l/m 6,7 km/h (2 Bft) W-SW 0,00 h 0,000 mm 0,0 UV-I 0 W/m 7,2 C 8,1 C 10,5 km/h (2 Bft) 97,26 %
10.10.2017 07:00 8,8 C 11,1 C 89 % 1018,3 hPa 0,0 l/m 8,1 km/h (2 Bft) SW 0,03 h 0,000 mm 0,0 UV-I 13 W/m 7,2 C 7,6 C 13,0 km/h (3 Bft) 97,21 %
10.10.2017 08:00 9,1 C 11,1 C 90 % 1018,8 hPa 0,0 l/m 6,1 km/h (2 Bft) W-SW 0,00 h 0,025 mm 0,0 UV-I 79 W/m 7,6 C 8,7 C 9,4 km/h (2 Bft) 98,18 %
10.10.2017 09:00 10,4 C 11,1 C 87 % 1019,1 hPa 0,0 l/m 8,1 km/h (2 Bft) W-SW 0,17 h 0,051 mm 0,6 UV-I 176 W/m 8,2 C 8,9 C 12,8 km/h (3 Bft) 98,19 %
10.10.2017 10:00 12,0 C 11,1 C 80 % 1019,0 hPa 0,0 l/m 11,8 km/h (2 Bft) W-SW 0,20 h 0,101 mm 0,9 UV-I 224 W/m 8,6 C 9,0 C 18,2 km/h (3 Bft) 97,03 %
10.10.2017 11:00 13,5 C 11,1 C 75 % 1019,1 hPa 0,0 l/m 14,7 km/h (3 Bft) W-SW 0,70 h 0,127 mm 1,9 UV-I 448 W/m 9,1 C 9,7 C 22,3 km/h (4 Bft) 96,99 %
10.10.2017 12:00 14,8 C 11,1 C 69 % 1018,9 hPa 0,0 l/m 15,2 km/h (3 Bft) W-SW 0,87 h 0,280 mm 2,1 UV-I 587 W/m 9,1 C 11,0 C 24,1 km/h (4 Bft) 99,49 %
10.10.2017 13:00 15,4 C 11,1 C 64 % 1018,6 hPa 0,2 l/m 16,8 km/h (3 Bft) W-SW 0,87 h 0,330 mm 1,9 UV-I 455 W/m 8,6 C 11,2 C 25,2 km/h (4 Bft) 98,04 %
10.10.2017 14:00 15,6 C 11,1 C 62 % 1018,3 hPa 0,0 l/m 14,6 km/h (3 Bft) W-SW 0,50 h 0,305 mm 1,3 UV-I 335 W/m 8,2 C 12,0 C 22,3 km/h (4 Bft) 98,87 %
10.10.2017 15:00 14,9 C 11,1 C 64 % 1018,2 hPa 0,0 l/m 10,4 km/h (2 Bft) W-SW 0,00 h 0,228 mm 0,6 UV-I 116 W/m 8,0 C 12,9 C 16,9 km/h (3 Bft) 98,25 %
10.10.2017 16:00 14,3 C 11,1 C 67 % 1018,3 hPa 0,0 l/m 9,5 km/h (2 Bft) W-SW 0,00 h 0,102 mm 0,0 UV-I 71 W/m 8,2 C 12,6 C 15,2 km/h (3 Bft) 97,34 %
10.10.2017 17:00 14,1 C 11,1 C 69 % 1018,6 hPa 0,0 l/m 9,3 km/h (2 Bft) W-SW 0,00 h 0,076 mm 0,0 UV-I 49 W/m 8,5 C 12,5 C 14,4 km/h (3 Bft) 98,61 %
10.10.2017 18:00 13,1 C 11,1 C 76 % 1019,1 hPa 0,0 l/m 8,3 km/h (2 Bft) SW 0,03 h 0,051 mm 0,0 UV-I 8 W/m 9,0 C 12,0 C 12,8 km/h (3 Bft) 98,60 %
10.10.2017 19:00 12,2 C 11,1 C 84 % 1019,5 hPa 0,0 l/m 5,2 km/h (1 Bft) S-SW 0,00 h 0,025 mm 0,0 UV-I 0 W/m 9,6 C 12,0 C 7,9 km/h (2 Bft) 97,87 %
10.10.2017 20:00 11,8 C 11,1 C 87 % 1019,8 hPa 0,0 l/m 5,5 km/h (1 Bft) SW 0,00 h 0,026 mm 0,0 UV-I 0 W/m 9,7 C 11,4 C 9,1 km/h (2 Bft) 96,79 %
10.10.2017 21:00 11,8 C 11,1 C 87 % 1020,1 hPa 0,0 l/m 10,2 km/h (2 Bft) SW 0,00 h 0,000 mm 0,0 UV-I 0 W/m 9,8 C 9,6 C 16,3 km/h (3 Bft) 98,46 %
10.10.2017 22:00 11,3 C 11,1 C 92 % 1020,5 hPa 1,0 l/m 10,6 km/h (2 Bft) W-SW 0,00 h 0,025 mm 0,0 UV-I 0 W/m 10,0 C 8,7 C 16,7 km/h (3 Bft) 99,22 %
10.10.2017 23:00 11,2 C 11,1 C 94 % 1020,7 hPa 0,0 l/m 12,4 km/h (3 Bft) S-SW 0,00 h 0,000 mm 0,0 UV-I 0 W/m 10,2 C 7,7 C 19,4 km/h (3 Bft) 97,88 %
11.10.2017 00:00 11,4 C 11,1 C 93 % 1020,5 hPa 0,0 l/m 11,7 km/h (2 Bft) SW 0,00 h 0,000 mm 0,0 UV-I 0 W/m 10,3 C 8,3 C 18,9 km/h (3 Bft) 97,45 %
11.10.2017 01:00 11,5 C 11,1 C 93 % 1020,6 hPa 0,0 l/m 9,0 km/h (2 Bft) SW 0,00 h 0,000 mm 0,0 UV-I 0 W/m 10,4 C 9,9 C 14,2 km/h (3 Bft) 98,21 %
11.10.2017 02:00 11,2 C 11,1 C 93 % 1020,6 hPa 0,0 l/m 8,0 km/h (2 Bft) SW 0,00 h 0,000 mm 0,0 UV-I 0 W/m 10,1 C 10,0 C 12,9 km/h (3 Bft) 99,11 %
11.10.2017 03:00 11,4 C 11,1 C 92 % 1020,4 hPa 0,0 l/m 11,9 km/h (2 Bft) SW 0,00 h 0,000 mm 0,0 UV-I 0 W/m 10,1 C 8,3 C 17,4 km/h (3 Bft) 97,12 %
11.10.2017 04:00 11,6 C 11,1 C 90 % 1020,5 hPa 0,0 l/m 8,4 km/h (2 Bft) SW 0,00 h 0,025 mm 0,0 UV-I 0 W/m 10,0 C 10,3 C 12,7 km/h (3 Bft) 97,56 %
11.10.2017 05:00 11,4 C 11,1 C 91 % 1020,4 hPa 0,0 l/m 5,3 km/h (1 Bft) SW 0,00 h 0,000 mm 0,0 UV-I 0 W/m 9,9 C 11,4 C 8,0 km/h (2 Bft) 97,86 %
11.10.2017 06:00 10,4 C 11,1 C 93 % 1020,3 hPa 0,0 l/m 5,7 km/h (1 Bft) SW 0,00 h 0,000 mm 0,0 UV-I 0 W/m 9,3 C 10,3 C 8,5 km/h (2 Bft) 99,47 %
11.10.2017 07:00 9,9 C 11,1 C 94 % 1020,4 hPa 0,0 l/m 5,9 km/h (2 Bft) S-SW 0,30 h 0,000 mm 0,0 UV-I 25 W/m 9,0 C 9,8 C 8,6 km/h (2 Bft) 96,58 %
11.10.2017 08:00 10,9 C 11,1 C 92 % 1020,7 hPa 0,0 l/m 6,6 km/h (2 Bft) S-SW 1,00 h 0,026 mm 0,0 UV-I 168 W/m 9,7 C 10,5 C 10,3 km/h (2 Bft) 98,07 %
11.10.2017 09:00 12,6 C 11,1 C 87 % 1020,9 hPa 0,0 l/m 7,0 km/h (2 Bft) S-SW 1,00 h 0,076 mm 0,7 UV-I 298 W/m 10,5 C 12,0 C 11,2 km/h (2 Bft) 98,61 %
11.10.2017 10:00 14,8 C 11,1 C 79 % 1021,0 hPa 0,0 l/m 6,1 km/h (2 Bft) W-SW 1,00 h 0,152 mm 1,4 UV-I 434 W/m 11,2 C 14,6 C 10,3 km/h (2 Bft) 98,84 %
11.10.2017 11:00 16,3 C 11,1 C 73 % 1020,7 hPa 0,0 l/m 6,6 km/h (2 Bft) W-SW 1,00 h 0,254 mm 2,2 UV-I 520 W/m 11,4 C 15,8 C 11,3 km/h (2 Bft) 99,33 %
11.10.2017 12:00 17,6 C 11,3 C 67 % 1020,5 hPa 0,0 l/m 8,4 km/h (2 Bft) W-SW 0,93 h 0,305 mm 2,4 UV-I 604 W/m 11,3 C 16,6 C 14,6 km/h (3 Bft) 98,24 %
11.10.2017 13:00 17,7 C 11,6 C 65 % 1019,9 hPa 0,0 l/m 3,4 km/h (1 Bft) W-NW 0,70 h 0,330 mm 2,0 UV-I 476 W/m 11,0 C 17,7 C 6,8 km/h (2 Bft) 99,60 %
11.10.2017 14:00 19,0 C 11,7 C 59 % 1019,4 hPa 0,0 l/m 5,7 km/h (1 Bft) SW 1,00 h 0,280 mm 2,0 UV-I 516 W/m 10,8 C 18,6 C 10,8 km/h (2 Bft) 96,40 %
11.10.2017 15:00 18,6 C 11,7 C 58 % 1019,1 hPa 0,0 l/m 3,9 km/h (1 Bft) W 1,00 h 0,330 mm 1,2 UV-I 353 W/m 10,1 C 18,6 C 8,3 km/h (2 Bft) 97,50 %
11.10.2017 16:00 18,2 C 11,7 C 59 % 1018,8 hPa 0,0 l/m 2,6 km/h (1 Bft) W 1,00 h 0,229 mm 0,7 UV-I 228 W/m 9,9 C 18,2 C 5,6 km/h (1 Bft) 97,62 %
11.10.2017 17:00 17,1 C 11,7 C 65 % 1018,8 hPa 0,0 l/m 0,6 km/h (0 Bft) W 1,00 h 0,152 mm 0,0 UV-I 93 W/m 10,4 C 17,1 C 1,8 km/h (1 Bft) 99,08 %
11.10.2017 18:00 13,7 C 11,7 C 82 % 1018,9 hPa 0,0 l/m 1,1 km/h (0 Bft) W 0,23 h 0,051 mm 0,0 UV-I 18 W/m 10,7 C 13,7 C 1,8 km/h (1 Bft) 98,35 %
11.10.2017 19:00 11,8 C 11,7 C 86 % 1018,9 hPa 0,0 l/m 0,6 km/h (0 Bft) W 0,00 h 0,000 mm 0,0 UV-I 0 W/m 9,6 C 11,8 C 1,7 km/h (1 Bft) 97,16 %
11.10.2017 20:00 11,2 C 11,7 C 88 % 1019,0 hPa 0,0 l/m 1,9 km/h (1 Bft) W-SW 0,00 h 0,000 mm 0,0 UV-I 0 W/m 9,2 C 11,2 C 3,6 km/h (1 Bft) 99,09 %
11.10.2017 21:00 11,2 C 11,7 C 88 % 1019,1 hPa 0,0 l/m 4,0 km/h (1 Bft) S 0,00 h 0,000 mm 0,0 UV-I 0 W/m 9,3 C 11,2 C 5,8 km/h (1 Bft) 98,08 %
11.10.2017 22:00 10,3 C 11,7 C 90 % 1019,1 hPa 0,0 l/m 4,6 km/h (1 Bft) S 0,00 h 0,000 mm 0,0 UV-I 0 W/m 8,8 C 10,3 C 6,5 km/h (2 Bft) 99,29 %
11.10.2017 23:00 9,6 C 11,7 C 92 % 1019,3 hPa 0,0 l/m 3,2 km/h (1 Bft) S-SW 0,00 h 0,000 mm 0,0 UV-I 0 W/m 8,4 C 9,6 C 5,3 km/h (1 Bft) 95,98 %
12.10.2017 00:00 9,4 C 11,7 C 92 % 1019,4 hPa 0,0 l/m 3,4 km/h (1 Bft) S 0,00 h 0,000 mm 0,0 UV-I 0 W/m 8,2 C 9,4 C 5,8 km/h (2 Bft) 99,71 %
12.10.2017 01:00 9,2 C 11,7 C 93 % 1019,3 hPa 0,0 l/m 3,6 km/h (1 Bft) S 0,00 h 0,000 mm 0,0 UV-I 0 W/m 8,1 C 9,2 C 6,1 km/h (2 Bft) 97,94 %
12.10.2017 02:00 8,6 C 11,7 C 93 % 1019,3 hPa 0,0 l/m 2,4 km/h (1 Bft) SW 0,00 h 0,000 mm 0,0 UV-I 0 W/m 7,6 C 8,6 C 4,3 km/h (1 Bft) 98,43 %
12.10.2017 03:00 7,7 C 11,7 C 94 % 1019,6 hPa 0,0 l/m 0,9 km/h (0 Bft) S-SW 0,00 h 0,000 mm 0,0 UV-I 0 W/m 6,9 C 7,7 C 2,2 km/h (1 Bft) 96,92 %
12.10.2017 04:00 7,2 C 11,7 C 95 % 1019,8 hPa 0,0 l/m 0,3 km/h (0 Bft) S 0,00 h 0,000 mm 0,0 UV-I 0 W/m 6,5 C 7,2 C 1,1 km/h (0 Bft) 98,78 %
12.10.2017 05:00 6,7 C 11,7 C 96 % 1020,0 hPa 0,0 l/m 0,0 km/h (0 Bft) S 0,00 h 0,000 mm 0,0 UV-I 0 W/m 6,1 C 6,7 C 0,4 km/h (0 Bft) 97,93 %
12.10.2017 06:00 6,5 C 11,1 C 96 % 1020,3 hPa 0,0 l/m 0,2 km/h (0 Bft) N 0,00 h 0,000 mm 0,0 UV-I 0 W/m 5,9 C 6,5 C 0,6 km/h (0 Bft) 96,78 %
12.10.2017 07:00 6,3 C 11,1 C 96 % 1020,7 hPa 0,0 l/m 0,2 km/h (0 Bft) S-SO 0,50 h 0,000 mm 0,0 UV-I 31 W/m 5,8 C 6,3 C 0,8 km/h (0 Bft) 99,47 %
12.10.2017 08:00 7,5 C 11,1 C 97 % 1021,3 hPa 0,0 l/m 0,4 km/h (0 Bft) O-SO 0,50 h 0,025 mm 0,0 UV-I 114 W/m 7,1 C 7,5 C 1,2 km/h (1 Bft) 98,07 %
12.10.2017 09:00 9,7 C 11,1 C 94 % 1021,6 hPa 0,0 l/m 0,7 km/h (0 Bft) SO 0,07 h 0,051 mm 0,5 UV-I 148 W/m 8,8 C 9,7 C 2,3 km/h (1 Bft) 97,49 %
12.10.2017 10:00 12,4 C 11,1 C 84 % 1021,8 hPa 0,0 l/m 1,2 km/h (1 Bft) S 0,87 h 0,076 mm 1,3 UV-I 385 W/m 9,7 C 12,4 C 2,8 km/h (1 Bft) 97,04 %
12.10.2017 11:00 15,7 C 11,1 C 75 % 1021,8 hPa 0,0 l/m 3,3 km/h (1 Bft) S-SW 1,00 h 0,204 mm 2,1 UV-I 524 W/m 11,2 C 15,7 C 6,0 km/h (2 Bft) 98,65 %
12.10.2017 12:00 18,7 C 11,3 C 63 % 1021,7 hPa 0,0 l/m 6,8 km/h (2 Bft) W-SW 1,00 h 0,279 mm 2,4 UV-I 545 W/m 11,5 C 18,0 C 12,1 km/h (2 Bft) 98,45 %
12.10.2017 13:00 20,3 C 11,7 C 55 % 1021,6 hPa 0,0 l/m 15,2 km/h (3 Bft) W 0,67 h 0,330 mm 1,8 UV-I 464 W/m 11,0 C 17,7 C 25,8 km/h (4 Bft) 97,74 %
12.10.2017 14:00 18,1 C 11,7 C 66 % 1022,1 hPa 0,0 l/m 5,5 km/h (1 Bft) W 0,00 h 0,330 mm 0,9 UV-I 151 W/m 11,6 C 17,9 C 12,1 km/h (2 Bft) 98,84 %
12.10.2017 15:00 17,9 C 11,7 C 69 % 1022,6 hPa 0,0 l/m 8,0 km/h (2 Bft) W-SW 0,07 h 0,127 mm 0,6 UV-I 150 W/m 12,2 C 17,0 C 14,3 km/h (3 Bft) 97,57 %
12.10.2017 16:00 17,1 C 11,7 C 72 % 1023,0 hPa 0,0 l/m 12,9 km/h (3 Bft) W-SW 0,03 h 0,127 mm 0,3 UV-I 77 W/m 12,0 C 14,5 C 21,0 km/h (4 Bft) 97,05 %
12.10.2017 17:00 16,6 C 11,7 C 71 % 1023,1 hPa 0,0 l/m 12,0 km/h (2 Bft) W-SW 0,40 h 0,102 mm 0,0 UV-I 45 W/m 11,3 C 14,1 C 19,0 km/h (3 Bft) 98,05 %
12.10.2017 18:00 15,8 C 11,7 C 74 % 1023,4 hPa 0,0 l/m 7,5 km/h (2 Bft) SW 0,20 h 0,076 mm 0,0 UV-I 14 W/m 11,2 C 15,2 C 11,5 km/h (2 Bft) 99,46 %
12.10.2017 19:00 15,7 C 11,7 C 77 % 1023,8 hPa 0,0 l/m 9,4 km/h (2 Bft) W-SW 0,00 h 0,026 mm 0,0 UV-I 0 W/m 11,6 C 14,2 C 14,9 km/h (3 Bft) 97,82 %
12.10.2017 20:00 15,5 C 11,7 C 76 % 1024,3 hPa 0,0 l/m 11,5 km/h (2 Bft) W-SW 0,00 h 0,025 mm 0,0 UV-I 0 W/m 11,4 C 13,1 C 17,5 km/h (3 Bft) 96,95 %
12.10.2017 21:00 15,2 C 11,7 C 76 % 1025,2 hPa 0,0 l/m 9,1 km/h (2 Bft) W-SW 0,00 h 0,051 mm 0,0 UV-I 0 W/m 11,1 C 13,9 C 13,8 km/h (3 Bft) 97,52 %
12.10.2017 22:00 14,7 C 11,7 C 79 % 1025,4 hPa 0,0 l/m 7,3 km/h (2 Bft) W-SW 0,00 h 0,025 mm 0,0 UV-I 0 W/m 11,0 C 14,1 C 11,0 km/h (2 Bft) 98,91 %
12.10.2017 23:00 14,3 C 11,7 C 80 % 1025,5 hPa 0,0 l/m 5,5 km/h (1 Bft) W-SW 0,00 h 0,026 mm 0,0 UV-I 0 W/m 11,0 C 14,3 C 8,3 km/h (2 Bft) 97,62 %
13.10.2017 00:00 14,3 C 11,7 C 81 % 1025,6 hPa 0,0 l/m 8,5 km/h (2 Bft) W-SW 0,00 h 0,000 mm 0,0 UV-I 0 W/m 11,1 C 13,1 C 13,2 km/h (3 Bft) 93,40 %
13.10.2017 01:00 14,3 C 11,7 C 81 % 1025,8 hPa 0,0 l/m 9,5 km/h (2 Bft) W-SW 0,00 h 0,025 mm 0,0 UV-I 0 W/m 11,1 C 12,7 C 14,2 km/h (3 Bft) 97,52 %
13.10.2017 02:00 14,2 C 11,7 C 81 % 1025,8 hPa 0,0 l/m 7,2 km/h (2 Bft) W-SW 0,00 h 0,026 mm 0,0 UV-I 0 W/m 11,1 C 13,5 C 10,9 km/h (2 Bft) 98,67 %
13.10.2017 03:00 13,8 C 11,7 C 82 % 1025,8 hPa 0,0 l/m 7,0 km/h (2 Bft) W-SW 0,00 h 0,025 mm 0,0 UV-I 0 W/m 10,7 C 13,3 C 11,0 km/h (2 Bft) 98,21 %
13.10.2017 04:00 13,5 C 11,7 C 82 % 1025,8 hPa 0,0 l/m 7,4 km/h (2 Bft) SW 0,00 h 0,026 mm 0,0 UV-I 0 W/m 10,5 C 12,7 C 11,2 km/h (2 Bft) 97,55 %
13.10.2017 05:00 12,8 C 11,7 C 86 % 1025,7 hPa 0,0 l/m 9,6 km/h (2 Bft) SW 0,00 h 0,025 mm 0,0 UV-I 0 W/m 10,5 C 10,9 C 14,0 km/h (3 Bft) 97,52 %
13.10.2017 06:00 12,7 C 11,7 C 87 % 1025,9 hPa 0,0 l/m 8,6 km/h (2 Bft) W-SW 0,00 h 0,025 mm 0,0 UV-I 0 W/m 10,6 C 11,4 C 12,9 km/h (3 Bft) 98,79 %
13.10.2017 07:00 12,6 C 11,7 C 88 % 1026,3 hPa 0,0 l/m 9,5 km/h (2 Bft) SW 0,00 h 0,026 mm 0,0 UV-I 10 W/m 10,6 C 10,8 C 14,5 km/h (3 Bft) 98,63 %
13.10.2017 08:00 12,9 C 11,7 C 87 % 1026,9 hPa 0,0 l/m 8,2 km/h (2 Bft) SW 0,00 h 0,025 mm 0,0 UV-I 66 W/m 10,7 C 11,8 C 12,9 km/h (3 Bft) 96,84 %
13.10.2017 09:00 13,9 C 11,7 C 83 % 1027,1 hPa 0,0 l/m 8,7 km/h (2 Bft) SW 0,37 h 0,051 mm 0,7 UV-I 212 W/m 11,1 C 12,6 C 13,9 km/h (3 Bft) 97,79 %
13.10.2017 10:00 15,7 C 11,7 C 74 % 1027,1 hPa 0,0 l/m 10,9 km/h (2 Bft) W-SW 0,90 h 0,127 mm 1,2 UV-I 367 W/m 11,1 C 13,6 C 17,9 km/h (3 Bft) 99,00 %
13.10.2017 11:00 16,4 C 11,7 C 71 % 1027,1 hPa 0,0 l/m 10,4 km/h (2 Bft) W-SW 0,97 h 0,229 mm 1,7 UV-I 434 W/m 11,1 C 14,6 C 16,7 km/h (3 Bft) 98,44 %
13.10.2017 12:00 17,0 C 11,7 C 69 % 1026,9 hPa 0,0 l/m 6,2 km/h (2 Bft) SW 0,90 h 0,279 mm 2,2 UV-I 475 W/m 11,2 C 16,6 C 11,9 km/h (2 Bft) 99,52 %
13.10.2017 13:00 17,8 C 11,7 C 64 % 1026,4 hPa 0,0 l/m 8,5 km/h (2 Bft) W-SW 0,83 h 0,279 mm 2,1 UV-I 491 W/m 11,0 C 16,7 C 14,5 km/h (3 Bft) 98,16 %
13.10.2017 14:00 18,0 C 11,7 C 63 % 1025,9 hPa 0,0 l/m 5,0 km/h (1 Bft) W-NW 0,90 h 0,305 mm 1,7 UV-I 491 W/m 10,8 C 17,9 C 10,6 km/h (2 Bft) 96,60 %
13.10.2017 15:00 18,4 C 11,7 C 58 % 1025,5 hPa 0,0 l/m 6,9 km/h (2 Bft) W-SW 1,00 h 0,280 mm 1,2 UV-I 380 W/m 10,0 C 17,8 C 13,1 km/h (3 Bft) 96,63 %
13.10.2017 16:00 18,0 C 11,7 C 59 % 1025,3 hPa 0,0 l/m 6,3 km/h (2 Bft) W 1,00 h 0,254 mm 0,6 UV-I 230 W/m 9,7 C 17,6 C 12,1 km/h (2 Bft) 99,00 %
13.10.2017 17:00 16,7 C 11,7 C 63 % 1025,4 hPa 0,0 l/m 5,0 km/h (1 Bft) W 0,40 h 0,177 mm 0,0 UV-I 67 W/m 9,6 C 16,7 C 9,4 km/h (2 Bft) 97,92 %
13.10.2017 18:00 15,3 C 11,7 C 68 % 1025,6 hPa 0,0 l/m 5,6 km/h (1 Bft) W-SW 0,17 h 0,077 mm 0,0 UV-I 13 W/m 9,4 C 15,2 C 9,0 km/h (2 Bft) 99,04 %
13.10.2017 19:00 12,8 C 11,7 C 78 % 1026,1 hPa 0,0 l/m 3,2 km/h (1 Bft) S-SW 0,00 h 0,025 mm 0,0 UV-I 0 W/m 9,0 C 12,8 C 5,3 km/h (1 Bft) 96,18 %
13.10.2017 20:00 11,0 C 11,7 C 86 % 1026,3 hPa 0,0 l/m 2,8 km/h (1 Bft) S 0,00 h 0,025 mm 0,0 UV-I 0 W/m 8,6 C 11,0 C 4,4 km/h (1 Bft) 99,58 %
13.10.2017 21:00 11,0 C 11,7 C 87 % 1026,8 hPa 0,0 l/m 3,4 km/h (1 Bft) S 0,00 h 0,000 mm 0,0 UV-I 0 W/m 9,0 C 11,0 C 5,5 km/h (1 Bft) 98,05 %
13.10.2017 22:00 11,0 C 11,7 C 89 % 1027,1 hPa 0,0 l/m 5,0 km/h (1 Bft) S 0,00 h 0,000 mm 0,0 UV-I 0 W/m 9,2 C 11,0 C 8,0 km/h (2 Bft) 97,64 %
13.10.2017 23:00 10,8 C 11,7 C 91 % 1027,3 hPa 0,0 l/m 5,5 km/h (1 Bft) S-SW 0,00 h 0,000 mm 0,0 UV-I 0 W/m 9,3 C 10,7 C 8,7 km/h (2 Bft) 96,84 %
14.10.2017 00:00 10,3 C 11,7 C 92 % 1027,3 hPa 0,0 l/m 4,9 km/h (1 Bft) S-SW 0,00 h 0,000 mm 0,0 UV-I 0 W/m 9,0 C 10,3 C 8,0 km/h (2 Bft) 99,37 %
14.10.2017 01:00 10,0 C 11,7 C 93 % 1027,4 hPa 0,0 l/m 4,8 km/h (1 Bft) S-SW 0,00 h 0,000 mm 0,0 UV-I 0 W/m 8,9 C 9,9 C 7,7 km/h (2 Bft) 97,66 %
14.10.2017 02:00 9,3 C 11,7 C 94 % 1027,5 hPa 0,0 l/m 4,1 km/h (1 Bft) SW 0,00 h 0,000 mm 0,0 UV-I 0 W/m 8,4 C 9,3 C 6,0 km/h (2 Bft) 97,92 %
14.10.2017 03:00 8,7 C 11,7 C 95 % 1027,4 hPa 0,0 l/m 1,5 km/h (1 Bft) S-SW 0,00 h 0,000 mm 0,0 UV-I 0 W/m 7,9 C 8,7 C 3,1 km/h (1 Bft) 97,57 %
14.10.2017 04:00 7,6 C 11,7 C 96 % 1027,5 hPa 0,0 l/m 0,1 km/h (0 Bft) S-SW 0,00 h 0,000 mm 0,0 UV-I 0 W/m 6,9 C 7,6 C 0,6 km/h (0 Bft) 98,63 %
14.10.2017 05:00 7,3 C 11,7 C 96 % 1027,8 hPa 0,0 l/m 1,7 km/h (1 Bft) S 0,00 h 0,000 mm 0,0 UV-I 0 W/m 6,7 C 7,3 C 3,7 km/h (1 Bft) 98,65 %
14.10.2017 06:00 7,3 C 11,7 C 96 % 1028,1 hPa 0,0 l/m 1,4 km/h (1 Bft) S 0,00 h 0,000 mm 0,0 UV-I 0 W/m 6,7 C 7,3 C 3,1 km/h (1 Bft) 96,46 %
14.10.2017 07:00 6,4 C 11,7 C 96 % 1028,4 hPa 0,0 l/m 0,2 km/h (0 Bft) S 0,10 h 0,000 mm 0,0 UV-I 15 W/m 5,9 C 6,4 C 0,4 km/h (0 Bft) 99,75 %
14.10.2017 08:00 7,3 C 11,7 C 97 % 1028,7 hPa 0,2 l/m 1,5 km/h (1 Bft) S 0,97 h 0,000 mm 0,0 UV-I 136 W/m 6,8 C 7,3 C 3,0 km/h (1 Bft) 97,94 %
14.10.2017 09:00 11,0 C 11,7 C 93 % 1028,9 hPa 0,0 l/m 2,8 km/h (1 Bft) W-SW 1,00 h 0,051 mm 0,7 UV-I 288 W/m 10,0 C 11,0 C 5,0 km/h (1 Bft) 97,02 %
14.10.2017 10:00 12,2 C 11,7 C 90 % 1029,1 hPa 0,0 l/m 2,5 km/h (1 Bft) NO 1,00 h 0,127 mm 1,4 UV-I 421 W/m 10,7 C 12,2 C 4,8 km/h (1 Bft) 96,33 %
14.10.2017 11:00 14,7 C 11,7 C 84 % 1028,9 hPa 0,0 l/m 1,8 km/h (1 Bft) NO 1,00 h 0,203 mm 2,2 UV-I 509 W/m 11,9 C 14,7 C 3,8 km/h (1 Bft) 95,97 %
14.10.2017 12:00 16,4 C 11,7 C 77 % 1028,7 hPa 0,0 l/m 2,0 km/h (1 Bft) NO 1,00 h 0,254 mm 2,6 UV-I 548 W/m 12,3 C 16,4 C 4,5 km/h (1 Bft) 96,80 %
14.10.2017 13:00 17,3 C 11,7 C 71 % 1028,3 hPa 0,0 l/m 3,2 km/h (1 Bft) NO 1,00 h 0,305 mm 2,5 UV-I 535 W/m 11,8 C 17,3 C 5,8 km/h (2 Bft) 95,85 %
14.10.2017 14:00 17,9 C 11,7 C 65 % 1027,7 hPa 0,0 l/m 1,9 km/h (1 Bft) O-SO 1,00 h 0,305 mm 2,0 UV-I 478 W/m 11,1 C 17,9 C 4,2 km/h (1 Bft) 96,78 %
14.10.2017 15:00 18,2 C 11,7 C 64 % 1027,2 hPa 0,0 l/m 1,6 km/h (1 Bft) W-SW 1,00 h 0,279 mm 1,2 UV-I 342 W/m 11,4 C 18,2 C 4,3 km/h (1 Bft) 98,09 %
14.10.2017 16:00 18,0 C 11,7 C 66 % 1027,0 hPa 0,0 l/m 0,9 km/h (0 Bft) NW 1,00 h 0,203 mm 0,6 UV-I 221 W/m 11,5 C 18,0 C 2,6 km/h (1 Bft) 99,58 %
14.10.2017 17:00 16,8 C 11,7 C 73 % 1027,0 hPa 0,0 l/m 0,5 km/h (0 Bft) N-NW 1,00 h 0,127 mm 0,0 UV-I 82 W/m 11,9 C 16,8 C 1,6 km/h (1 Bft) 97,80 %
14.10.2017 18:00 13,6 C 11,7 C 85 % 1027,1 hPa 0,0 l/m 1,3 km/h (1 Bft) N-NW 0,13 h 0,051 mm 0,0 UV-I 10 W/m 11,1 C 13,6 C 2,1 km/h (1 Bft) 98,35 %
14.10.2017 19:00 12,4 C 11,7 C 88 % 1027,5 hPa 0,0 l/m 0,6 km/h (0 Bft) N-NW 0,00 h 0,000 mm 0,0 UV-I 0 W/m 10,5 C 12,4 C 1,2 km/h (1 Bft) 97,95 %
14.10.2017 20:00 11,7 C 11,7 C 91 % 1027,7 hPa 0,0 l/m 0,9 km/h (0 Bft) SO 0,00 h 0,000 mm 0,0 UV-I 0 W/m 10,2 C 11,7 C 2,3 km/h (1 Bft) 98,03 %
14.10.2017 21:00 11,2 C 11,7 C 92 % 1027,8 hPa 0,0 l/m 1,5 km/h (1 Bft) SO 0,00 h 0,000 mm 0,0 UV-I 0 W/m 9,9 C 11,2 C 2,7 km/h (1 Bft) 99,26 %
14.10.2017 22:00 10,5 C 11,7 C 93 % 1028,1 hPa 0,0 l/m 2,1 km/h (1 Bft) SO 0,00 h 0,000 mm 0,0 UV-I 0 W/m 9,4 C 10,5 C 3,4 km/h (1 Bft) 96,47 %
14.10.2017 23:00 9,9 C 11,7 C 94 % 1028,0 hPa 0,0 l/m 0,9 km/h (0 Bft) O-NO 0,00 h 0,000 mm 0,0 UV-I 0 W/m 9,1 C 9,9 C 1,9 km/h (1 Bft) 98,26 %
15.10.2017 00:00 9,1 C 11,7 C 95 % 1028,1 hPa 0,0 l/m 0,4 km/h (0 Bft) O-NO 0,00 h 0,000 mm 0,0 UV-I 0 W/m 8,4 C 9,1 C 0,9 km/h (0 Bft) 98,45 %
15.10.2017 01:00 8,8 C 11,7 C 96 % 1028,2 hPa 0,0 l/m 0,8 km/h (0 Bft) O-NO 0,00 h 0,000 mm 0,0 UV-I 0 W/m 8,2 C 8,8 C 1,9 km/h (1 Bft) 98,87 %
15.10.2017 02:00 8,2 C 11,7 C 96 % 1028,2 hPa 0,0 l/m 0,2 km/h (0 Bft) O-SO 0,00 h 0,000 mm 0,0 UV-I 0 W/m 7,6 C 8,2 C 0,4 km/h (0 Bft) 96,90 %
15.10.2017 03:00 7,8 C 11,7 C 96 % 1028,1 hPa 0,0 l/m 0,0 km/h (0 Bft) N 0,00 h 0,000 mm 0,0 UV-I 0 W/m 7,2 C 7,8 C 0,0 km/h (0 Bft) 98,09 %
15.10.2017 04:00 7,3 C 11,7 C 97 % 1028,0 hPa 0,0 l/m 0,0 km/h (0 Bft) N 0,00 h 0,000 mm 0,0 UV-I 0 W/m 6,8 C 7,3 C 0,0 km/h (0 Bft) 99,63 %
15.10.2017 05:00 7,0 C 11,7 C 97 % 1027,9 hPa 0,0 l/m 0,2 km/h (0 Bft) O-SO 0,00 h 0,000 mm 0,0 UV-I 0 W/m 6,5 C 7,0 C 0,6 km/h (0 Bft) 96,87 %
15.10.2017 06:00 7,2 C 11,7 C 97 % 1027,9 hPa 0,0 l/m 0,0 km/h (0 Bft) N 0,00 h 0,000 mm 0,0 UV-I 0 W/m 6,8 C 7,2 C 0,0 km/h (0 Bft) 98,29 %
15.10.2017 07:00 7,3 C 11,7 C 97 % 1027,8 hPa 0,2 l/m 0,1 km/h (0 Bft) N 0,07 h 0,000 mm 0,0 UV-I 15 W/m 6,9 C 7,3 C 0,9 km/h (0 Bft) 97,22 %
15.10.2017 08:00 7,8 C 11,7 C 97 % 1027,9 hPa 0,0 l/m 0,3 km/h (0 Bft) O-SO 0,00 h 0,000 mm 0,0 UV-I 69 W/m 7,4 C 7,8 C 0,9 km/h (0 Bft) 99,44 %
15.10.2017 09:00 8,7 C 11,7 C 98 % 1028,1 hPa 0,0 l/m 1,3 km/h (1 Bft) NO 0,00 h 0,025 mm 0,5 UV-I 144 W/m 8,4 C 8,7 C 3,3 km/h (1 Bft) 95,50 %
15.10.2017 10:00 9,7 C 11,7 C 98 % 1028,2 hPa 0,0 l/m 1,2 km/h (1 Bft) NO 0,00 h 0,077 mm 0,8 UV-I 210 W/m 9,4 C 9,7 C 3,1 km/h (1 Bft) 99,30 %
15.10.2017 11:00 11,2 C 11,7 C 98 % 1028,3 hPa 0,0 l/m 1,0 km/h (0 Bft) O-NO 0,73 h 0,101 mm 1,8 UV-I 407 W/m 10,9 C 11,2 C 2,7 km/h (1 Bft) 97,98 %
15.10.2017 12:00 14,6 C 11,7 C 88 % 1028,0 hPa 0,0 l/m 2,5 km/h (1 Bft) NO 1,00 h 0,203 mm 2,5 UV-I 546 W/m 12,6 C 14,6 C 5,3 km/h (1 Bft) 99,14 %
15.10.2017 13:00 17,0 C 11,7 C 78 % 1027,4 hPa 0,0 l/m 3,0 km/h (1 Bft) NO 1,00 h 0,280 mm 2,4 UV-I 534 W/m 13,0 C 17,0 C 5,8 km/h (2 Bft) 98,15 %
15.10.2017 14:00 18,4 C 11,7 C 71 % 1026,7 hPa 0,0 l/m 5,1 km/h (1 Bft) O-NO 1,00 h 0,305 mm 1,9 UV-I 467 W/m 13,1 C 18,4 C 8,1 km/h (2 Bft) 99,17 %
15.10.2017 15:00 19,1 C 11,7 C 69 % 1026,2 hPa 0,0 l/m 3,5 km/h (1 Bft) O-NO 1,00 h 0,279 mm 1,2 UV-I 363 W/m 13,4 C 19,1 C 5,9 km/h (2 Bft) 97,80 %
15.10.2017 16:00 19,1 C 11,7 C 70 % 1025,7 hPa 0,0 l/m 3,6 km/h (1 Bft) O-NO 1,00 h 0,229 mm 0,6 UV-I 222 W/m 13,5 C 19,1 C 5,5 km/h (1 Bft) 97,23 %
15.10.2017 17:00 18,1 C 11,7 C 75 % 1025,6 hPa 0,0 l/m 2,4 km/h (1 Bft) O-NO 1,00 h 0,152 mm 0,0 UV-I 80 W/m 13,5 C 18,1 C 4,0 km/h (1 Bft) 97,34 %
15.10.2017 18:00 15,0 C 11,7 C 86 % 1025,7 hPa 0,0 l/m 0,1 km/h (0 Bft) N 0,10 h 0,051 mm 0,0 UV-I 10 W/m 12,6 C 15,0 C 0,2 km/h (0 Bft) 99,57 %
15.10.2017 19:00 13,1 C 11,7 C 91 % 1026,0 hPa 0,0 l/m 2,5 km/h (1 Bft) O-NO 0,00 h 0,000 mm 0,0 UV-I 0 W/m 11,6 C 13,1 C 3,5 km/h (1 Bft) 98,23 %
15.10.2017 20:00 11,9 C 11,7 C 93 % 1026,0 hPa 0,0 l/m 2,3 km/h (1 Bft) S-SO 0,00 h 0,000 mm 0,0 UV-I 0 W/m 10,9 C 11,9 C 4,4 km/h (1 Bft) 96,97 %
15.10.2017 21:00 12,1 C 11,7 C 95 % 1026,1 hPa 0,0 l/m 3,5 km/h (1 Bft) S 0,00 h 0,000 mm 0,0 UV-I 0 W/m 11,3 C 12,1 C 5,5 km/h (1 Bft) 98,89 %
15.10.2017 22:00 11,7 C 11,7 C 94 % 1026,1 hPa 0,0 l/m 3,3 km/h (1 Bft) S-SW 0,00 h 0,000 mm 0,0 UV-I 0 W/m 10,8 C 11,7 C 5,1 km/h (1 Bft) 98,18 %
15.10.2017 23:00 11,2 C 11,7 C 95 % 1025,9 hPa 0,0 l/m 2,2 km/h (1 Bft) S-SW 0,00 h 0,000 mm 0,0 UV-I 0 W/m 10,4 C 11,2 C 4,4 km/h (1 Bft) 99,86 %
Min-Datum _ 14.10.17 09.10.17 12.10.17 09.10.17 - 11.10.17 - - - - - 14.10.17 09.10.17 11.10.17 13.10.17
_ Min-Zeit 07:38 00:00 13:22 00:02 - 17:24 - - - - - 07:38 23:34 17:24 00:02
Minimum _ 5,9 C 11,1 C 52 % 1016,9 hPa - 0,0 km/h (0 Bft) - - - - - 5,3 C 3,7 C 0,0 km/h (0 Bft) 11,76 %
Max-Datum _ 12.10.17 11.10.17 15.10.17 14.10.17 10.10.17 12.10.17 - 15.10.17 10.10.17 11.10.17 11.10.17 15.10.17 15.10.17 12.10.17 09.10.17
_ Max-Zeit 13:20 12:38 08:38 10:08 22:06 13:52 - 14:14 13:00 12:40 12:46 15:38 15:24 13:48 00:34
Maximum _ 21,1 C 11,7 C 98 % 1029,2 hPa 1,0 l/m 22,3 km/h
W (4 Bft)
- 0,07 h 0,330 mm 2,8 UV-I 786 W/m 13,9 C 19,3 C 43,5 km/h
W (6 Bft)
100,00 %
Durchschnitt _ 12,3 C 11,5 C 84 % 1022,9 hPa #3,2 l/m 5,8 km/h (2 Bft) W-SW #43:40 h #12,675 mm 1,4 UV-I 240 W/m 9,5 C 11,4 C 9,4 km/h (2 Bft) 97,99 %